Time;durP1;ratioP1;P1;durP2;ratioP2;P2;SDS_P1;SDS_P2;PMS_P1;PMS_P2;Temp;Humidity;BMP_temperature;BMP_pressure;BME280_temperature;BME280_humidity;BME280_pressure;Samples;Min_cycle;Max_cycle;Signal;HPM_P1;HPM_P2
2021/10/04 00:00:58;;;;;;;29.40;26.30;;;;;;;8.96;100.00;99156.03;2107666;28;20243;-77
2021/10/04 00:01:59;;;;;;;31.45;27.33;;;;;;;8.98;100.00;99146.69;2107202;28;20197;-77
2021/10/04 00:03:02;;;;;;;32.97;28.30;;;;;;;9.00;100.00;99152.50;2107225;28;20228;-77
2021/10/04 00:04:03;;;;;;;31.30;27.98;;;;;;;8.99;100.00;99158.91;2115713;28;20214;-77
2021/10/04 00:05:06;;;;;;;31.20;27.87;;;;;;;8.99;100.00;99150.94;2116254;28;20185;-77
2021/10/04 00:06:08;;;;;;;33.13;28.80;;;;;;;8.99;100.00;99148.28;2115979;28;20237;-77
2021/10/04 00:07:10;;;;;;;31.77;27.60;;;;;;;8.99;100.00;99158.91;2115699;28;20185;-77
2021/10/04 00:08:11;;;;;;;33.17;28.17;;;;;;;9.05;100.00;99155.13;2116137;28;20227;-77
2021/10/04 00:09:12;;;;;;;32.78;29.08;;;;;;;9.05;100.00;99157.78;2116339;28;20189;-77
2021/10/04 00:10:16;;;;;;;31.27;27.93;;;;;;;9.00;100.00;99147.19;2115791;27;20201;-77
2021/10/04 00:11:17;;;;;;;32.08;26.95;;;;;;;8.99;100.00;99150.94;2107581;28;20193;-77
2021/10/04 00:12:19;;;;;;;31.40;27.43;;;;;;;8.97;100.00;99152.28;2115655;28;20185;-77
2021/10/04 00:13:20;;;;;;;35.25;28.58;;;;;;;8.97;100.00;99158.41;2116215;28;20313;-77
2021/10/04 00:14:23;;;;;;;31.02;27.92;;;;;;;8.96;100.00;99162.16;2116415;28;20271;-77
2021/10/04 00:15:29;;;;;;;33.25;29.35;;;;;;;8.93;100.00;99152.06;2116170;28;20674;-77
2021/10/04 00:16:30;;;;;;;38.33;28.50;;;;;;;8.94;100.00;99152.84;2115758;27;20205;-77
2021/10/04 00:17:32;;;;;;;33.13;29.23;;;;;;;8.92;100.00;99157.66;2107073;28;20197;-77
2021/10/04 00:18:34;;;;;;;33.38;29.15;;;;;;;8.91;100.00;99154.22;2115521;28;20204;-77
2021/10/04 00:19:36;;;;;;;33.17;29.60;;;;;;;8.90;100.00;99151.84;2115703;28;20193;-77
2021/10/04 00:20:38;;;;;;;31.40;28.17;;;;;;;8.89;100.00;99155.56;2116391;28;20200;-77
2021/10/04 00:21:40;;;;;;;36.20;29.10;;;;;;;8.85;100.00;99149.22;2116245;28;20583;-77
2021/10/04 00:22:41;;;;;;;32.42;28.35;;;;;;;8.85;100.00;99157.19;2115722;28;20201;-77
2021/10/04 00:23:43;;;;;;;33.10;28.77;;;;;;;8.84;100.00;99158.28;2107118;28;20201;-77
2021/10/04 00:24:44;;;;;;;31.85;28.40;;;;;;;8.80;100.00;99158.06;2115729;28;20211;-77
2021/10/04 00:25:45;;;;;;;32.73;28.27;;;;;;;8.81;100.00;99158.84;2115481;28;20223;-77
2021/10/04 00:26:46;;;;;;;31.48;28.10;;;;;;;8.77;100.00;99156.75;2115095;28;20591;-77
2021/10/04 00:27:51;;;;;;;34.53;28.52;;;;;;;8.77;100.00;99150.63;2115716;28;20186;-77
2021/10/04 00:28:52;;;;;;;31.67;28.25;;;;;;;8.76;100.00;99146.38;2116187;28;20557;-77
2021/10/04 00:29:53;;;;;;;33.23;28.23;;;;;;;8.77;100.00;99150.63;2115500;28;20189;-77
2021/10/04 00:30:54;;;;;;;32.80;29.30;;;;;;;8.76;100.00;99143.72;2115551;28;20196;-77
2021/10/04 00:31:56;;;;;;;32.40;28.50;;;;;;;8.75;100.00;99144.78;2115425;28;20201;-77
2021/10/04 00:32:57;;;;;;;32.28;28.00;;;;;;;8.74;100.00;99144.00;2107329;28;20206;-77
2021/10/04 00:34:02;;;;;;;32.10;28.80;;;;;;;8.71;100.00;99149.09;2106886;28;20683;-77
2021/10/04 00:35:06;;;;;;;31.60;28.30;;;;;;;8.72;100.00;99153.34;2107535;28;20185;-77
2021/10/04 00:36:08;;;;;;;31.08;27.40;;;;;;;8.69;100.00;99141.41;2107746;28;20221;-77
2021/10/04 00:37:10;;;;;;;31.83;28.00;;;;;;;8.72;100.00;99146.16;2115462;28;20197;-77
2021/10/04 00:38:11;;;;;;;34.67;27.80;;;;;;;8.72;100.00;99148.03;2115640;28;20205;-77
2021/10/04 00:39:13;;;;;;;31.07;27.77;;;;;;;8.69;100.00;99146.72;2106900;28;20208;-77
2021/10/04 00:40:15;;;;;;;30.77;27.58;;;;;;;8.69;100.00;99135.31;2106961;28;20198;-77
2021/10/04 00:41:22;;;;;;;29.42;26.35;;;;;;;8.69;100.00;99152.06;2107140;28;20659;-77
2021/10/04 00:42:24;;;;;;;32.13;27.73;;;;;;;8.68;100.00;99145.13;2115694;28;20169;-77
2021/10/04 00:43:26;;;;;;;31.10;27.77;;;;;;;8.68;100.00;99149.66;2116017;28;20211;-77
2021/10/04 00:44:27;;;;;;;36.55;28.13;;;;;;;8.65;100.00;99145.69;2115280;28;20564;-77
2021/10/04 00:45:30;;;;;;;35.77;26.37;;;;;;;8.66;100.00;99151.81;2107283;28;20194;-77
2021/10/04 00:46:30;;;;;;;31.65;28.15;;;;;;;8.63;100.00;99147.06;2115430;28;20196;-77
2021/10/04 00:47:34;;;;;;;31.30;27.80;;;;;;;8.62;100.00;99145.47;2115568;27;20197;-77
2021/10/04 00:48:35;;;;;;;33.95;27.80;;;;;;;8.66;100.00;99141.16;2115361;28;20272;-77
2021/10/04 00:49:38;;;;;;;30.53;27.23;;;;;;;8.63;100.00;99139.06;2115956;27;20192;-77
2021/10/04 00:50:39;;;;;;;31.90;28.30;;;;;;;8.60;100.00;99143.09;2115952;28;20193;-77
2021/10/04 00:51:41;;;;;;;32.87;28.50;;;;;;;8.58;100.00;99142.56;2115971;28;20276;-77
2021/10/04 00:52:42;;;;;;;35.88;27.88;;;;;;;8.60;100.00;99136.97;2115551;27;20212;-77
2021/10/04 00:53:44;;;;;;;33.08;27.88;;;;;;;8.57;100.00;99125.03;2115323;28;20604;-77
2021/10/04 00:54:45;;;;;;;30.88;27.70;;;;;;;8.58;100.00;99136.44;2115225;28;20201;-77
2021/10/04 00:55:49;;;;;;;31.08;27.83;;;;;;;8.57;100.00;99138.31;2106829;28;20225;-77
2021/10/04 00:56:50;;;;;;;34.10;28.35;;;;;;;8.55;100.00;99126.38;2107138;28;20297;-77
2021/10/04 00:57:56;;;;;;;36.23;28.80;;;;;;;8.55;100.00;99132.50;2115310;28;20638;-77
2021/10/04 00:58:57;;;;;;;32.65;28.25;;;;;;;8.54;100.00;99128.25;2116048;27;20659;-77
2021/10/04 00:59:59;;;;;;;33.27;28.17;;;;;;;8.51;100.00;99131.44;2115069;28;20210;-77
2021/10/04 01:01:00;;;;;;;31.23;27.92;;;;;;;8.49;100.00;99125.63;2114776;28;20441;-77
2021/10/04 01:02:02;;;;;;;31.70;28.38;;;;;;;8.45;100.00;99120.09;2115304;28;20213;-77
2021/10/04 01:03:09;;;;;;;31.77;27.63;;;;;;;8.44;100.00;99131.00;2114700;28;20658;-77
2021/10/04 01:04:11;;;;;;;31.52;28.17;;;;;;;8.44;100.00;99134.47;2115310;28;20651;-77
2021/10/04 01:05:15;;;;;;;31.05;27.20;;;;;;;8.43;100.00;99130.22;2115826;28;20197;-77
2021/10/04 01:06:19;;;;;;;33.97;28.45;;;;;;;8.42;100.00;99127.81;2115984;28;20189;-77
2021/10/04 01:07:20;;;;;;;40.67;27.92;;;;;;;8.38;100.00;99130.25;2115078;28;20204;-77
2021/10/04 01:08:22;;;;;;;35.20;27.50;;;;;;;8.37;100.00;99133.19;2106580;28;20229;-77
2021/10/04 01:09:23;;;;;;;32.58;27.65;;;;;;;8.37;100.00;99130.53;2106797;28;20694;-77
2021/10/04 01:10:26;;;;;;;32.58;27.80;;;;;;;8.35;100.00;99128.16;2106683;28;20186;-77
2021/10/04 01:11:27;;;;;;;32.97;28.33;;;;;;;8.33;100.00;99132.91;2115239;28;20200;-77
2021/10/04 01:12:29;;;;;;;35.53;29.00;;;;;;;8.32;100.00;99131.31;2115111;28;20235;-77
2021/10/04 01:13:30;;;;;;;33.97;28.15;;;;;;;8.35;100.00;99136.13;2115180;28;20189;-77
2021/10/04 01:14:31;;;;;;;34.53;27.67;;;;;;;8.34;100.00;99131.88;2115387;27;20197;-77
2021/10/04 01:15:35;;;;;;;35.20;28.83;;;;;;;8.33;100.00;99132.91;2115236;27;20204;-77
2021/10/04 01:16:36;;;;;;;32.13;28.15;;;;;;;8.33;100.00;99130.25;2115490;28;20238;-77
2021/10/04 01:17:38;;;;;;;32.15;28.00;;;;;;;8.33;100.00;99140.09;2115722;28;20248;-77
2021/10/04 01:18:39;;;;;;;31.73;28.40;;;;;;;8.30;100.00;99138.78;2114991;28;20283;-77
2021/10/04 01:19:41;;;;;;;35.28;28.30;;;;;;;8.33;100.00;99132.13;2115309;28;20197;-77
2021/10/04 01:20:44;;;;;;;32.13;28.73;;;;;;;8.33;100.00;99129.47;2114974;28;20267;-77
2021/10/04 01:21:45;;;;;;;32.45;28.40;;;;;;;8.30;100.00;99125.50;2115067;28;20675;-77
2021/10/04 01:22:48;;;;;;;32.42;28.92;;;;;;;8.31;100.00;99129.75;2114954;28;20215;-77
2021/10/04 01:23:49;;;;;;;33.08;28.88;;;;;;;8.28;100.00;99135.63;2107190;28;20208;-77
2021/10/04 01:24:52;;;;;;;31.97;28.67;;;;;;;8.26;100.00;99132.47;2115261;28;20192;-77
2021/10/04 01:25:53;;;;;;;31.13;27.60;;;;;;;8.25;100.00;99135.38;2115635;28;20185;-77
2021/10/04 01:26:55;;;;;;;34.73;29.20;;;;;;;8.22;100.00;99126.09;2115873;28;20189;-77
2021/10/04 01:27:55;;;;;;;33.65;28.83;;;;;;;8.22;100.00;99126.91;2115030;28;20211;-77
2021/10/04 01:28:57;;;;;;;33.47;28.90;;;;;;;8.27;100.00;99131.38;2115072;28;20242;-77
2021/10/04 01:30:00;;;;;;;31.95;28.63;;;;;;;8.23;100.00;99133.00;2115952;28;20514;-76
2021/10/04 01:31:03;;;;;;;33.67;29.38;;;;;;;8.22;100.00;99126.09;2114964;28;20580;-77
2021/10/04 01:32:06;;;;;;;33.95;30.30;;;;;;;8.20;100.00;99134.38;2115047;28;20682;-77
2021/10/04 01:33:08;;;;;;;32.00;28.40;;;;;;;8.22;100.00;99128.75;2114966;28;20662;-77
2021/10/04 01:34:09;;;;;;;36.15;29.30;;;;;;;8.20;100.00;99131.69;2106883;28;20202;-77
2021/10/04 01:35:12;;;;;;;32.07;28.10;;;;;;;8.20;100.00;99141.53;2106682;28;20664;-77
2021/10/04 01:36:15;;;;;;;35.92;29.50;;;;;;;8.20;100.00;99141.53;2115169;28;20216;-77
2021/10/04 01:37:19;;;;;;;35.20;28.50;;;;;;;8.18;100.00;99143.69;2114945;28;20197;-77
2021/10/04 01:38:21;;;;;;;31.77;28.25;;;;;;;8.17;100.00;99139.44;2106989;28;20194;-77
2021/10/04 01:39:22;;;;;;;34.38;28.67;;;;;;;8.16;100.00;99137.84;2114849;28;20256;-77
2021/10/04 01:40:24;;;;;;;36.07;28.93;;;;;;;8.13;100.00;99138.41;2114997;28;20218;-77
2021/10/04 01:41:25;;;;;;;33.97;28.20;;;;;;;8.14;100.00;99132.00;2115593;28;20545;-77
2021/10/04 01:42:27;;;;;;;31.27;28.15;;;;;;;8.16;100.00;99137.84;2114924;28;20193;-77
2021/10/04 01:43:30;;;;;;;32.10;28.48;;;;;;;8.15;100.00;99134.38;2115077;28;20234;-77
2021/10/04 01:44:31;;;;;;;32.40;28.38;;;;;;;8.22;100.00;99142.84;2115522;28;20189;-77
2021/10/04 01:45:33;;;;;;;31.52;28.23;;;;;;;8.19;100.00;99142.63;2114980;28;20595;-77
2021/10/04 01:46:34;;;;;;;31.70;28.25;;;;;;;8.15;100.00;99146.88;2115133;28;20216;-77
2021/10/04 01:47:36;;;;;;;32.97;28.80;;;;;;;8.14;100.00;99140.78;2115783;28;20212;-77
2021/10/04 01:48:37;;;;;;;32.22;28.83;;;;;;;8.17;100.00;99139.44;2115540;28;20659;-77
2021/10/04 01:49:38;;;;;;;35.13;28.57;;;;;;;8.16;100.00;99135.19;2114876;28;20533;-77
2021/10/04 01:50:40;;;;;;;31.42;28.13;;;;;;;8.16;100.00;99137.84;2114834;28;20189;-77
2021/10/04 01:51:44;;;;;;;32.95;28.40;;;;;;;8.14;100.00;99124.03;2115498;28;20337;-77
2021/10/04 01:52:45;;;;;;;33.78;29.17;;;;;;;8.14;100.00;99135.47;2115517;28;20275;-77
2021/10/04 01:53:47;;;;;;;32.10;28.00;;;;;;;8.13;100.00;99138.41;2115070;28;20205;-77
2021/10/04 01:54:48;;;;;;;33.05;27.75;;;;;;;8.11;100.00;99143.22;2115128;28;20189;-77
2021/10/04 01:55:50;;;;;;;34.63;27.37;;;;;;;8.08;100.00;99141.09;2114828;28;20730;-77
2021/10/04 01:56:50;;;;;;;37.08;29.63;;;;;;;8.09;100.00;99146.16;2106724;28;20202;-77
2021/10/04 01:57:56;;;;;;;36.53;30.17;;;;;;;8.10;100.00;99139.75;2106686;28;20212;-77
2021/10/04 01:58:59;;;;;;;35.33;30.85;;;;;;;8.12;100.00;99137.59;2106906;28;20250;-77
2021/10/04 02:00:05;;;;;;;37.03;29.17;;;;;;;8.12;100.00;99129.63;2107057;28;20201;-77
2021/10/04 02:01:13;;;;;;;37.15;29.80;;;;;;;8.13;100.00;99133.09;2115063;28;20698;-77
2021/10/04 02:02:15;;;;;;;32.30;28.55;;;;;;;8.11;100.00;99138.69;2115432;28;20234;-77
2021/10/04 02:03:15;;;;;;;41.75;29.83;;;;;;;8.11;100.00;99137.91;2114840;28;20189;-77
2021/10/04 02:04:18;;;;;;;37.07;30.03;;;;;;;8.12;100.00;99134.16;2106364;28;20224;-77
2021/10/04 02:05:23;;;;;;;42.00;30.25;;;;;;;8.13;100.00;99135.75;2106629;28;20707;-77
2021/10/04 02:06:24;;;;;;;35.53;30.42;;;;;;;8.14;100.00;99134.66;2114900;28;20200;-77
2021/10/04 02:07:26;;;;;;;35.35;29.27;;;;;;;8.18;100.00;99135.72;2115714;28;20661;-77
2021/10/04 02:08:28;;;;;;;32.80;28.52;;;;;;;8.18;100.00;99139.16;2114801;28;20228;-77
2021/10/04 02:09:29;;;;;;;36.22;28.38;;;;;;;8.15;100.00;99133.59;2106624;28;20208;-77
2021/10/04 02:10:32;;;;;;;36.30;29.97;;;;;;;8.14;100.00;99134.66;2114870;28;20689;-77
2021/10/04 02:11:36;;;;;;;41.40;30.50;;;;;;;8.11;100.00;99133.38;2114969;28;20209;-77
2021/10/04 02:12:38;;;;;;;36.22;29.02;;;;;;;8.09;100.00;99148.81;2114840;28;20192;-77
2021/10/04 02:13:39;;;;;;;34.20;28.67;;;;;;;8.05;100.00;99141.66;2115402;28;20193;-77
2021/10/04 02:14:41;;;;;;;34.40;29.83;;;;;;;8.06;100.00;99141.38;2116341;28;20725;-77
2021/10/04 02:15:42;;;;;;;40.53;30.77;;;;;;;8.09;100.00;99142.69;2108676;28;20271;-77
2021/10/04 02:16:44;;;;;;;35.37;28.57;;;;;;;8.09;100.00;99148.00;2108106;28;20196;-76
2021/10/04 02:17:44;;;;;;;32.55;27.98;;;;;;;8.07;100.00;99153.59;2116531;28;20427;-77
2021/10/04 02:18:49;;;;;;;34.97;28.90;;;;;;;8.04;100.00;99146.19;2116438;28;20228;-77
2021/10/04 02:19:52;;;;;;;31.85;28.15;;;;;;;8.03;100.00;99141.94;2116593;28;20276;-77
2021/10/04 02:20:54;;;;;;;36.92;28.88;;;;;;;8.02;100.00;99144.88;2116351;28;20201;-77
2021/10/04 02:21:59;;;;;;;35.28;29.08;;;;;;;7.99;100.00;99135.56;2116504;28;20626;-77
2021/10/04 02:23:05;;;;;;;35.55;28.75;;;;;;;8.06;100.00;99148.53;2117119;28;20694;-77
2021/10/04 02:24:06;;;;;;;37.03;28.05;;;;;;;8.03;100.00;99144.59;2117131;28;20581;-77
2021/10/04 02:25:09;;;;;;;34.97;28.83;;;;;;;7.98;100.00;99138.50;2117125;28;20185;-77
2021/10/04 02:26:09;;;;;;;34.00;28.17;;;;;;;7.96;100.00;99153.94;2117069;28;20189;-77
2021/10/04 02:27:11;;;;;;;33.27;28.93;;;;;;;7.94;100.00;99146.25;2117105;27;20193;-77
2021/10/04 02:28:14;;;;;;;41.55;31.33;;;;;;;7.92;100.00;99149.19;2116483;28;20189;-77
2021/10/04 02:29:15;;;;;;;31.90;28.20;;;;;;;7.91;100.00;99141.50;2116349;28;20250;-77
2021/10/04 02:30:19;;;;;;;33.90;28.95;;;;;;;7.88;100.00;99142.81;2116475;28;20242;-77
2021/10/04 02:31:20;;;;;;;37.13;29.90;;;;;;;7.87;100.00;99140.44;2117138;28;20185;-77
2021/10/04 02:32:21;;;;;;;38.53;30.40;;;;;;;7.87;100.00;99138.59;2116413;28;20196;-77
2021/10/04 02:33:24;;;;;;;38.70;29.77;;;;;;;7.85;100.00;99138.06;2116338;28;20189;-77
2021/10/04 02:34:24;;;;;;;31.58;28.33;;;;;;;7.82;100.00;99135.97;2107958;28;20201;-77
2021/10/04 02:35:26;;;;;;;37.17;27.87;;;;;;;7.80;100.00;99137.31;2108180;28;20197;-77
2021/10/04 02:36:27;;;;;;;33.40;27.85;;;;;;;7.78;100.00;99140.22;2116387;28;20730;-77
2021/10/04 02:37:29;;;;;;;33.77;29.00;;;;;;;7.78;100.00;99148.19;2117039;28;20570;-77
2021/10/04 02:38:32;;;;;;;37.10;29.02;;;;;;;7.73;100.00;99140.28;2116643;28;20201;-76
2021/10/04 02:39:33;;;;;;;36.63;29.02;;;;;;;7.77;100.00;99148.47;2116286;28;20675;-76
2021/10/04 02:40:35;;;;;;;34.13;29.07;;;;;;;7.75;100.00;99145.31;2107859;28;20601;-76
2021/10/04 02:41:36;;;;;;;37.38;29.80;;;;;;;7.71;100.00;99129.13;2108475;28;20198;-76
2021/10/04 02:42:38;;;;;;;38.80;29.50;;;;;;;7.73;100.00;99142.13;2116492;28;20738;-76
2021/10/04 02:43:38;;;;;;;32.70;29.10;;;;;;;7.69;100.00;99133.13;2116280;28;20233;-76
2021/10/04 02:44:40;;;;;;;36.00;28.90;;;;;;;7.69;100.00;99143.75;2115598;28;20257;-76
2021/10/04 02:45:41;;;;;;;35.90;29.92;;;;;;;7.68;100.00;99145.63;2116385;28;20587;-76
2021/10/04 02:46:43;;;;;;;37.17;29.93;;;;;;;7.67;100.00;99140.59;2116958;28;20231;-76
2021/10/04 02:47:47;;;;;;;33.85;28.88;;;;;;;7.65;100.00;99138.22;2116267;28;20212;-76
2021/10/04 02:48:49;;;;;;;35.35;28.60;;;;;;;7.65;100.00;99140.84;2116138;28;20200;-76
2021/10/04 02:49:50;;;;;;;31.65;27.95;;;;;;;7.65;100.00;99141.66;2107900;28;20262;-76
2021/10/04 02:50:54;;;;;;;37.13;30.53;;;;;;;7.63;100.00;99135.81;2116383;28;20189;-76
2021/10/04 02:51:55;;;;;;;37.78;30.45;;;;;;;7.64;100.00;99147.22;2116259;28;20199;-76
2021/10/04 02:52:57;;;;;;;35.80;28.53;;;;;;;7.63;100.00;99141.09;2107806;28;20197;-76
2021/10/04 02:54:00;;;;;;;37.92;28.92;;;;;;;7.62;100.00;99144.03;2116306;28;20434;-76
2021/10/04 02:55:01;;;;;;;37.58;29.73;;;;;;;7.62;100.00;99136.06;2116172;28;20253;-76
2021/10/04 02:56:03;;;;;;;34.30;28.27;;;;;;;7.63;100.00;99150.94;2116240;28;20643;-76
2021/10/04 02:57:04;;;;;;;37.97;30.23;;;;;;;7.61;100.00;99142.47;2116835;28;20193;-77
2021/10/04 02:58:06;;;;;;;33.53;28.63;;;;;;;7.60;100.00;99146.19;2117099;28;20670;-77
2021/10/04 02:59:07;;;;;;;33.65;29.60;;;;;;;7.57;100.00;99138.78;2116815;28;20189;-77
2021/10/04 03:00:14;;;;;;;34.83;29.55;;;;;;;7.58;100.00;99137.72;2116728;28;20270;-77
2021/10/04 03:01:15;;;;;;;34.05;29.30;;;;;;;7.55;100.00;99138.25;2116125;28;20195;-77
2021/10/04 03:02:17;;;;;;;35.63;29.27;;;;;;;7.57;100.00;99146.75;2116422;27;20297;-77
2021/10/04 03:03:20;;;;;;;35.47;29.30;;;;;;;7.57;100.00;99147.53;2116251;28;20456;-77
2021/10/04 03:04:22;;;;;;;35.08;28.55;;;;;;;7.55;100.00;99141.69;2116051;28;20220;-77
2021/10/04 03:05:22;;;;;;;33.25;28.98;;;;;;;7.54;100.00;99131.34;2116390;28;20193;-77
2021/10/04 03:06:24;;;;;;;36.30;28.90;;;;;;;7.55;100.00;99141.69;2116787;27;20189;-77
2021/10/04 03:07:28;;;;;;;36.60;28.38;;;;;;;7.54;100.00;99136.66;2116061;28;20658;-77
2021/10/04 03:08:29;;;;;;;33.00;28.20;;;;;;;7.54;100.00;99134.78;2116223;28;20645;-77
2021/10/04 03:09:32;;;;;;;34.67;29.73;;;;;;;7.52;100.00;99133.50;2116177;28;20671;-77
2021/10/04 03:10:34;;;;;;;37.92;29.55;;;;;;;7.51;100.00;99142.53;2116936;28;20185;-76
2021/10/04 03:11:34;;;;;;;35.08;29.08;;;;;;;7.50;100.00;99135.63;2116280;27;20204;-76
2021/10/04 03:12:37;;;;;;;34.10;28.77;;;;;;;7.48;100.00;99145.72;2116123;28;20216;-76
2021/10/04 03:13:39;;;;;;;31.05;27.75;;;;;;;7.48;100.00;99141.22;2116875;28;20220;-76
2021/10/04 03:14:41;;;;;;;31.33;27.92;;;;;;;7.44;100.00;99134.84;2116026;28;20204;-76
2021/10/04 03:15:41;;;;;;;33.50;27.95;;;;;;;7.47;100.00;99146.78;2116314;28;20666;-76
2021/10/04 03:16:43;;;;;;;33.47;28.87;;;;;;;7.45;100.00;99144.41;2116219;27;20638;-76
2021/10/04 03:17:45;;;;;;;37.05;30.02;;;;;;;7.45;100.00;99140.94;2116084;28;20265;-76
2021/10/04 03:18:46;;;;;;;45.00;30.58;;;;;;;7.43;100.00;99135.91;2116044;28;20655;-76
2021/10/04 03:19:49;;;;;;;35.80;28.27;;;;;;;7.43;100.00;99140.44;2108002;28;20194;-77
2021/10/04 03:20:50;;;;;;;35.28;29.77;;;;;;;7.42;100.00;99138.84;2107620;28;20205;-77
2021/10/04 03:21:51;;;;;;;36.40;29.77;;;;;;;7.41;100.00;99137.28;2107596;28;20280;-77
2021/10/04 03:22:54;;;;;;;36.50;28.70;;;;;;;7.40;100.00;99141.00;2116212;28;20264;-77
2021/10/04 03:23:54;;;;;;;37.30;29.80;;;;;;;7.42;100.00;99144.94;2116673;28;20185;-77
2021/10/04 03:25:00;;;;;;;38.27;29.73;;;;;;;7.41;100.00;99132.75;2116626;28;20212;-77
2021/10/04 03:26:01;;;;;;;33.65;28.27;;;;;;;7.42;100.00;99138.84;2115836;28;20185;-77
2021/10/04 03:27:03;;;;;;;31.97;27.90;;;;;;;7.42;100.00;99144.94;2116004;28;20188;-77
2021/10/04 03:28:04;;;;;;;33.90;28.92;;;;;;;7.40;100.00;99143.66;2116105;28;20276;-77
2021/10/04 03:29:06;;;;;;;40.65;28.77;;;;;;;7.40;100.00;99141.78;2116687;28;20546;-77
2021/10/04 03:30:07;;;;;;;40.85;29.60;;;;;;;7.39;100.00;99140.19;2116570;28;20670;-77
2021/10/04 03:31:09;;;;;;;34.63;30.05;;;;;;;7.37;100.00;99132.47;2116590;28;20192;-77
2021/10/04 03:32:10;;;;;;;35.80;29.90;;;;;;;7.41;100.00;99139.91;2115936;28;20193;-77
2021/10/04 03:33:12;;;;;;;40.07;29.53;;;;;;;7.41;100.00;99134.63;2107404;28;20751;-77
2021/10/04 03:34:15;;;;;;;34.63;28.40;;;;;;;7.41;100.00;99135.41;2115994;28;20191;-77
2021/10/04 03:35:17;;;;;;;34.83;28.27;;;;;;;7.40;100.00;99143.66;2116748;28;20191;-77
2021/10/04 03:36:21;;;;;;;39.17;30.35;;;;;;;7.39;100.00;99134.09;2115780;28;20249;-76
2021/10/04 03:37:22;;;;;;;41.08;32.55;;;;;;;7.40;100.00;99144.44;2115953;28;20185;-77
2021/10/04 03:38:24;;;;;;;36.77;29.43;;;;;;;7.40;100.00;99143.66;2116164;27;20351;-77
2021/10/04 03:39:24;;;;;;;35.47;28.40;;;;;;;7.40;100.00;99151.59;2107708;28;20263;-77
2021/10/04 03:40:28;;;;;;;40.80;29.10;;;;;;;7.39;100.00;99147.38;2116047;28;20177;-77
2021/10/04 03:41:29;;;;;;;39.50;29.52;;;;;;;7.39;100.00;99144.72;2116574;28;20379;-76
2021/10/04 03:42:31;;;;;;;39.23;29.47;;;;;;;7.37;100.00;99148.41;2116566;28;20185;-76
2021/10/04 03:43:31;;;;;;;42.47;31.15;;;;;;;7.36;100.00;99144.16;2116160;27;20200;-76
2021/10/04 03:44:33;;;;;;;38.73;30.27;;;;;;;7.36;100.00;99149.47;2107393;28;20215;-77
2021/10/04 03:45:35;;;;;;;46.88;31.88;;;;;;;7.38;100.00;99151.84;2115882;28;20203;-77
2021/10/04 03:46:36;;;;;;;40.63;30.33;;;;;;;7.42;100.00;99146.81;2116495;28;20654;-77
2021/10/04 03:47:38;;;;;;;43.30;31.13;;;;;;;7.46;100.00;99153.16;2115846;28;20599;-77
2021/10/04 03:48:40;;;;;;;40.28;31.00;;;;;;;7.48;100.00;99154.50;2116047;28;20197;-77
2021/10/04 03:49:41;;;;;;;35.65;30.30;;;;;;;7.50;100.00;99149.69;2116404;28;20197;-77
2021/10/04 03:50:43;;;;;;;41.10;31.10;;;;;;;7.53;100.00;99153.66;2115680;28;20251;-77
2021/10/04 03:51:44;;;;;;;39.78;30.80;;;;;;;7.53;100.00;99158.97;2116037;28;20667;-77
2021/10/04 03:52:46;;;;;;;41.93;30.83;;;;;;;7.53;100.00;99156.31;2116501;28;20599;-77
2021/10/04 03:53:47;;;;;;;40.30;30.67;;;;;;;7.51;100.00;99148.63;2116408;28;20659;-77
2021/10/04 03:54:50;;;;;;;35.35;31.05;;;;;;;7.50;100.00;99157.66;2116216;28;20250;-77
2021/10/04 03:55:54;;;;;;;38.50;28.92;;;;;;;7.51;100.00;99155.78;2116319;27;20250;-77
2021/10/04 03:56:56;;;;;;;40.13;29.77;;;;;;;7.52;100.00;99154.72;2115702;28;20209;-77
2021/10/04 03:57:58;;;;;;;38.08;28.55;;;;;;;7.49;100.00;99156.06;2116013;27;20306;-77
2021/10/04 03:58:59;;;;;;;41.30;29.55;;;;;;;7.49;100.00;99157.94;2115761;28;20301;-77
2021/10/04 04:00:02;;;;;;;37.20;30.27;;;;;;;7.48;100.00;99156.34;2115599;28;20321;-77
2021/10/04 04:01:05;;;;;;;40.30;30.38;;;;;;;7.46;100.00;99153.16;2115816;28;20184;-77
2021/10/04 04:02:07;;;;;;;40.07;30.57;;;;;;;7.45;100.00;99151.56;2116340;28;20189;-77
2021/10/04 04:03:08;;;;;;;36.90;29.30;;;;;;;7.44;100.00;99149.97;2115950;27;20280;-77
2021/10/04 04:04:10;;;;;;;39.40;29.47;;;;;;;7.44;100.00;99153.44;2115739;28;20245;-77
2021/10/04 04:05:11;;;;;;;36.78;29.23;;;;;;;7.44;100.00;99150.78;2116303;28;20185;-77
2021/10/04 04:06:13;;;;;;;33.80;28.80;;;;;;;7.42;100.00;99149.47;2115990;27;20250;-77
2021/10/04 04:07:16;;;;;;;36.97;31.20;;;;;;;7.44;100.00;99157.94;2115218;28;20478;-77
2021/10/04 04:08:18;;;;;;;36.75;29.55;;;;;;;7.41;100.00;99156.63;2107270;28;20230;-77
2021/10/04 04:09:18;;;;;;;43.58;31.25;;;;;;;7.45;100.00;99148.91;2115683;28;20192;-77
2021/10/04 04:10:20;;;;;;;35.60;29.27;;;;;;;7.44;100.00;99147.31;2116329;28;20520;-77
2021/10/04 04:11:22;;;;;;;35.03;29.00;;;;;;;7.43;100.00;99148.41;2115556;28;20577;-77
2021/10/04 04:12:25;;;;;;;39.17;29.48;;;;;;;7.41;100.00;99142.56;2115637;28;20195;-77
2021/10/04 04:13:25;;;;;;;33.50;27.92;;;;;;;7.41;100.00;99153.19;2116244;28;20193;-77
2021/10/04 04:14:27;;;;;;;36.07;28.90;;;;;;;7.40;100.00;99147.09;2115526;28;20236;-77
2021/10/04 04:15:28;;;;;;;33.17;28.92;;;;;;;7.42;100.00;99160.09;2115643;28;20189;-77
2021/10/04 04:16:30;;;;;;;35.23;29.37;;;;;;;7.41;100.00;99155.84;2115443;28;20193;-77
2021/10/04 04:17:31;;;;;;;34.50;29.15;;;;;;;7.40;100.00;99151.59;2115622;28;20193;-77
2021/10/04 04:18:33;;;;;;;35.07;30.63;;;;;;;7.39;100.00;99160.63;2116284;27;20241;-77
2021/10/04 04:19:34;;;;;;;35.83;29.25;;;;;;;7.37;100.00;99156.38;2116205;28;20185;-77
2021/10/04 04:20:35;;;;;;;32.43;28.70;;;;;;;7.37;100.00;99161.69;2116261;28;20221;-77
2021/10/04 04:21:38;;;;;;;35.83;30.70;;;;;;;7.34;100.00;99156.94;2116253;28;20214;-77
2021/10/04 04:22:42;;;;;;;38.72;30.10;;;;;;;7.37;100.00;99160.88;2115517;28;20196;-77
2021/10/04 04:23:44;;;;;;;33.88;28.83;;;;;;;7.36;100.00;99156.66;2115108;28;20200;-77
2021/10/04 04:24:44;;;;;;;36.70;29.35;;;;;;;7.34;100.00;99161.44;2107060;28;20197;-77
2021/10/04 04:25:46;;;;;;;34.57;28.73;;;;;;;7.34;100.00;99164.09;2107759;28;20186;-77
2021/10/04 04:26:50;;;;;;;34.97;29.80;;;;;;;7.33;100.00;99151.91;2115537;28;20188;-77
2021/10/04 04:27:58;;;;;;;37.53;30.88;;;;;;;7.32;100.00;99161.72;2116194;28;20615;-77
2021/10/04 04:29:01;;;;;;;37.63;29.98;;;;;;;7.32;100.00;99156.41;2115821;28;20227;-77
2021/10/04 04:30:07;;;;;;;35.78;29.83;;;;;;;7.32;100.00;99155.63;2108190;28;20205;-77
2021/10/04 04:31:09;;;;;;;35.75;28.67;;;;;;;7.31;100.00;99157.47;2107848;28;20655;-77
2021/10/04 04:32:12;;;;;;;33.37;28.77;;;;;;;7.28;100.00;99155.34;2115724;28;20190;-77
2021/10/04 04:33:12;;;;;;;51.45;30.83;;;;;;;7.30;100.00;99155.91;2115432;28;20197;-77
2021/10/04 04:34:14;;;;;;;44.83;32.10;;;;;;;7.31;100.00;99154.81;2115680;28;20220;-77
2021/10/04 04:35:15;;;;;;;38.85;30.83;;;;;;;7.28;100.00;99160.66;2115680;28;20234;-77
2021/10/04 04:36:16;;;;;;;37.57;31.90;;;;;;;7.29;100.00;99154.28;2107207;28;20193;-77
2021/10/04 04:37:17;;;;;;;35.13;29.02;;;;;;;7.27;100.00;99158.28;2106879;28;20722;-78
2021/10/04 04:38:19;;;;;;;45.37;32.67;;;;;;;7.30;100.00;99155.09;2106128;28;20707;-77
2021/10/04 04:39:22;;;;;;;38.28;30.13;;;;;;;7.28;100.00;99159.88;2115347;28;20208;-77
2021/10/04 04:40:23;;;;;;;42.72;30.42;;;;;;;7.30;100.00;99155.09;2115310;28;20712;-77
2021/10/04 04:41:24;;;;;;;40.65;32.17;;;;;;;7.30;100.00;99161.19;2115285;28;20274;-77
2021/10/04 04:42:27;;;;;;;35.67;31.27;;;;;;;7.30;100.00;99163.06;2115438;28;20200;-77
2021/10/04 04:43:29;;;;;;;45.30;32.13;;;;;;;7.29;100.00;99161.44;2115973;28;20719;-77
2021/10/04 04:44:31;;;;;;;40.30;30.35;;;;;;;7.28;100.00;99160.66;2115263;28;20204;-77
2021/10/04 04:45:32;;;;;;;39.03;29.38;;;;;;;7.29;100.00;99161.44;2115605;28;20189;-77